Time;durP1;ratioP1;P1;durP2;ratioP2;P2;SDS_P1;SDS_P2;PMS_P1;PMS_P2;Temp;Humidity;BMP_temperature;BMP_pressure;BME280_temperature;BME280_humidity;BME280_pressure;Samples;Min_cycle;Max_cycle;Signal;HPM_P1;HPM_P2
2022/04/02 02:29:01;;;;;;;4.43;2.10;;;1.20;99.90;;;;;;6274224;22;20023;-93
2022/04/02 11:44:38;;;;;;;5.03;1.15;;;5.30;87.20;;;;;;6310479;22;20027;-85
2022/04/02 11:47:06;;;;;;;2.70;0.98;;;5.30;88.60;;;;;;6160081;22;1325948;-92
2022/04/02 11:52:25;;;;;;;3.35;1.40;;;5.40;90.00;;;;;;6278609;22;20023;-93
2022/04/02 11:54:50;;;;;;;5.18;1.27;;;5.40;90.30;;;;;;6200729;22;20353;-84
2022/04/02 11:57:18;;;;;;;3.07;1.27;;;5.50;90.60;;;;;;6224541;22;20016;-85
2022/04/02 11:59:57;;;;;;;6.18;1.30;;;5.60;90.90;;;;;;6277460;22;20019;-85
2022/04/02 12:02:40;;;;;;;4.18;1.23;;;5.60;90.40;;;;;;6250545;22;20011;-84
2022/04/02 12:05:08;;;;;;;4.60;1.27;;;5.70;89.50;;;;;;6224754;22;20433;-88
2022/04/02 12:07:48;;;;;;;6.47;1.15;;;5.70;86.80;;;;;;6250060;22;20352;-87
2022/04/02 12:10:23;;;;;;;5.50;1.10;;;5.70;87.40;;;;;;6226621;22;20022;-90
2022/04/02 12:13:02;;;;;;;5.43;1.15;;;5.80;87.20;;;;;;6250320;22;20069;-90
2022/04/02 12:18:09;;;;;;;3.20;0.90;;;5.90;86.80;;;;;;6254921;22;20027;-86
2022/04/02 12:20:42;;;;;;;4.97;1.10;;;5.80;83.30;;;;;;6225569;22;20031;-88
2022/04/02 12:23:18;;;;;;;3.35;1.00;;;5.80;82.60;;;;;;6225085;22;20070;-87
2022/04/02 12:25:55;;;;;;;5.35;1.20;;;5.90;81.10;;;;;;6225856;22;20051;-90
2022/04/02 12:28:45;;;;;;;3.42;1.02;;;6.00;80.80;;;;;;6225431;22;20019;-89
2022/04/02 12:31:33;;;;;;;6.40;1.17;;;6.10;80.10;;;;;;6237704;22;20021;-94
2022/04/02 12:33:59;;;;;;;4.53;1.25;;;6.30;79.20;;;;;;6226646;22;20016;-86
2022/04/02 12:36:36;;;;;;;3.03;1.10;;;6.50;79.80;;;;;;6224438;22;20026;-88
2022/04/02 12:39:19;;;;;;;5.13;1.00;;;6.60;79.20;;;;;;6224080;22;20574;-91
2022/04/02 12:42:35;;;;;;;2.53;0.80;;;6.70;76.20;;;;;;6226133;22;20015;-93
2022/04/02 12:48:08;;;;;;;3.17;1.20;;;6.90;72.50;;;;;;6277518;22;20441;-91
2022/04/02 12:50:53;;;;;;;5.10;1.48;;;7.00;70.40;;;;;;6226653;22;20026;-90
2022/04/02 12:53:33;;;;;;;5.18;1.20;;;7.00;70.40;;;;;;6224187;22;20424;-87
2022/04/02 12:56:01;;;;;;;2.92;1.02;;;6.90;69.90;;;;;;6223614;22;20015;-88
2022/04/02 13:12:12;;;;;;;;;;;;;;;;;;;;;
2022/04/02 13:43:36;;;;;;;3.67;1.10;;;6.30;66.40;;;;;;6262710;22;20377;-91
2022/04/02 13:46:29;;;;;;;3.17;1.00;;;6.30;66.50;;;;;;6280701;22;20102;-89
2022/04/02 13:49:53;;;;;;;3.17;0.70;;;6.40;66.00;;;;;;6252047;22;20028;-89
2022/04/02 14:06:09;;;;;;;2.90;1.00;;;6.70;64.10;;;;;;6245456;22;20067;-87
2022/04/02 14:08:36;;;;;;;4.30;1.10;;;6.70;63.90;;;;;;6243936;22;20031;-88
2022/04/02 14:19:09;;;;;;;5.03;1.10;;;6.50;64.20;;;;;;6220469;23;20028;-91
2022/04/02 14:21:37;;;;;;;8.10;1.20;;;6.30;65.30;;;;;;6245777;23;20020;-88
2022/04/02 14:25:03;;;;;;;;;;;;;;;;;;;;;
2022/04/02 14:28:08;;;;;;;4.55;1.15;;;6.20;66.80;;;;;;6216192;23;20523;-86
2022/04/02 14:30:37;;;;;;;4.78;1.35;;;6.10;67.50;;;;;;6220560;23;20159;-87
2022/04/02 14:33:41;;;;;;;3.90;1.02;;;6.10;68.10;;;;;;6220038;23;20047;-88
2022/04/02 14:36:41;;;;;;;4.53;1.30;;;6.10;68.70;;;;;;6177168;22;20019;-88
2022/04/02 14:39:49;;;;;;;5.38;1.35;;;6.20;69.60;;;;;;6225941;22;20020;-89
2022/04/02 14:42:52;;;;;;;3.42;1.00;;;6.20;67.40;;;;;;6224399;22;20023;-87
2022/04/02 14:50:35;;;;;;;3.20;0.70;;;6.00;68.50;;;;;;6276981;22;20447;-89
2022/04/02 14:53:29;;;;;;;4.43;1.10;;;5.80;67.60;;;;;;6226230;22;20022;-88
2022/04/02 14:56:33;;;;;;;4.55;1.20;;;5.80;68.00;;;;;;6225927;22;20047;-90
2022/04/02 14:59:30;;;;;;;3.05;0.95;;;5.70;67.30;;;;;;6226023;22;20018;-89
2022/04/02 15:02:23;;;;;;;5.43;1.17;;;5.60;67.90;;;;;;6225072;22;20467;-89
2022/04/02 15:05:40;;;;;;;;;;;;;;;;;;;;;
2022/04/02 15:27:19;;;;;;;4.05;0.85;;;5.80;68.30;;;;;;6307809;22;20019;-87
2022/04/02 15:30:10;;;;;;;3.63;0.90;;;5.80;68.10;;;;;;6279233;22;20440;-88
2022/04/02 15:32:42;;;;;;;3.92;1.30;;;5.70;68.00;;;;;;6255736;22;20085;-87
2022/04/02 15:35:17;;;;;;;3.25;0.95;;;5.60;68.40;;;;;;6255446;22;20076;-90
2022/04/02 16:31:47;;;;;;;6.65;1.00;;;5.40;70.00;;;;;;6275605;22;20028;-87
2022/04/02 16:34:35;;;;;;;3.95;0.75;;;5.40;70.20;;;;;;6224521;22;20449;-89
2022/04/02 16:37:12;;;;;;;5.10;1.37;;;5.40;70.30;;;;;;6212957;22;20015;-89
2022/04/02 16:39:43;;;;;;;5.47;1.30;;;5.40;70.40;;;;;;6250102;22;20265;-88
2022/04/02 16:42:22;;;;;;;2.70;0.70;;;5.40;69.90;;;;;;6226578;22;20047;-88
2022/04/02 16:57:39;;;;;;;2.88;0.70;;;5.20;69.30;;;;;;6291816;22;20073;-85
2022/04/02 17:00:09;;;;;;;2.97;0.60;;;5.20;69.30;;;;;;6280475;22;20141;-88
2022/04/02 17:02:50;;;;;;;;;;;;;;;;;;;;;
2022/04/02 17:05:42;;;;;;;3.20;0.60;;;5.10;70.00;;;;;;6277088;22;20447;-88
2022/04/02 17:08:17;;;;;;;2.80;0.70;;;5.10;70.30;;;;;;6284813;22;20563;-91
2022/04/02 17:10:51;;;;;;;3.65;0.50;;;5.00;70.20;;;;;;6280767;22;20015;-89
2022/04/02 17:13:26;;;;;;;2.65;0.50;;;5.00;70.40;;;;;;6280565;22;20449;-88
2022/04/02 17:16:04;;;;;;;4.32;0.60;;;4.90;69.90;;;;;;6280837;22;20011;-89
2022/04/02 17:18:31;;;;;;;5.80;1.65;;;4.90;70.30;;;;;;6253250;22;20015;-90
2022/04/02 17:21:11;;;;;;;5.75;1.70;;;4.80;70.50;;;;;;6280010;22;20445;-89
2022/04/02 17:23:39;;;;;;;8.48;1.90;;;4.80;71.10;;;;;;6255141;22;20446;-88
2022/04/02 17:26:28;;;;;;;7.22;2.50;;;4.70;71.20;;;;;;6255417;22;20051;-88
2022/04/02 17:28:55;;;;;;;6.53;2.20;;;4.70;71.70;;;;;;6280517;22;20011;-84
2022/04/02 17:31:31;;;;;;;2.47;1.10;;;4.70;72.30;;;;;;6280245;22;20068;-89
2022/04/02 17:34:22;;;;;;;2.40;1.10;;;4.60;72.50;;;;;;6254835;22;20023;-89
2022/04/02 17:37:04;;;;;;;3.60;1.00;;;4.50;72.70;;;;;;6307928;22;20023;-84
2022/04/02 17:39:30;;;;;;;3.47;0.90;;;4.50;72.90;;;;;;6280684;22;20344;-85
2022/04/02 17:42:11;;;;;;;6.43;1.15;;;4.40;73.00;;;;;;6280330;22;20051;-82
2022/04/02 17:44:38;;;;;;;2.35;0.57;;;4.40;72.90;;;;;;6307264;22;20019;-83
2022/04/02 17:47:06;;;;;;;3.97;0.93;;;4.30;73.10;;;;;;6279264;22;20086;-85
2022/04/02 17:49:42;;;;;;;4.78;1.60;;;4.30;72.70;;;;;;6280216;22;20026;-86
2022/04/02 17:52:27;;;;;;;3.00;0.88;;;4.20;72.90;;;;;;6254121;22;20016;-88
2022/04/02 17:54:53;;;;;;;4.10;0.80;;;4.20;72.80;;;;;;6280234;22;20027;-86
2022/04/02 17:57:23;;;;;;;1.67;0.68;;;4.10;73.10;;;;;;6281835;22;20065;-87
2022/04/02 17:59:51;;;;;;;4.15;0.90;;;4.00;73.50;;;;;;6282090;22;20085;-87
2022/04/02 18:02:19;;;;;;;4.85;0.90;;;4.00;74.00;;;;;;6281692;22;20507;-86
2022/04/02 18:04:55;;;;;;;4.13;0.95;;;4.00;74.50;;;;;;6281792;22;20511;-87
2022/04/02 18:07:27;;;;;;;3.47;1.00;;;3.90;74.90;;;;;;6282019;22;20016;-87
2022/04/02 18:09:55;;;;;;;2.42;0.98;;;3.80;75.30;;;;;;6256151;22;20494;-88
2022/04/02 18:12:23;;;;;;;2.08;0.70;;;3.70;76.40;;;;;;6282090;22;20087;-88
2022/04/02 18:14:50;;;;;;;4.22;1.35;;;3.70;76.30;;;;;;6281544;22;20496;-88
2022/04/02 18:17:17;;;;;;;4.30;1.83;;;3.70;76.60;;;;;;6256423;22;20034;-88
2022/04/02 18:19:43;;;;;;;4.88;1.35;;;3.60;76.90;;;;;;6256219;22;20021;-88
2022/04/02 18:22:15;;;;;;;3.65;1.50;;;3.60;77.40;;;;;;6281784;22;20093;-88
2022/04/02 18:24:41;;;;;;;8.52;2.10;;;3.50;77.80;;;;;;6256370;22;20018;-88
2022/04/02 18:27:07;;;;;;;3.58;1.23;;;3.50;78.10;;;;;;6282107;22;20435;-92
2022/04/02 18:29:33;;;;;;;2.30;1.00;;;3.50;78.60;;;;;;6256958;22;20085;-88
2022/04/02 18:32:03;;;;;;;3.23;0.80;;;3.40;78.90;;;;;;6281634;22;20015;-87
2022/04/02 18:34:32;;;;;;;4.60;1.00;;;3.30;79.40;;;;;;6280067;22;20348;-88
2022/04/02 18:37:00;;;;;;;3.60;0.90;;;3.20;79.80;;;;;;6256469;22;20502;-88
2022/04/02 18:39:27;;;;;;;3.35;0.90;;;3.10;80.20;;;;;;6254906;22;20023;-87
2022/04/02 18:41:55;;;;;;;5.28;1.10;;;3.10;80.80;;;;;;6281403;22;20462;-88
2022/04/02 18:44:21;;;;;;;3.35;1.08;;;2.90;81.50;;;;;;6281560;22;20055;-87
2022/04/02 18:46:47;;;;;;;4.10;1.77;;;2.90;82.10;;;;;;6255783;22;20011;-86
2022/04/02 18:49:13;;;;;;;8.17;3.33;;;2.80;82.60;;;;;;6255792;22;20070;-87
2022/04/02 18:51:40;;;;;;;7.72;3.42;;;2.80;83.50;;;;;;6255124;22;20017;-86
2022/04/02 18:54:06;;;;;;;10.85;5.28;;;2.70;84.40;;;;;;6279873;22;20018;-85
2022/04/02 18:56:32;;;;;;;8.93;4.47;;;2.70;85.10;;;;;;6255615;22;20011;-86
2022/04/02 18:58:57;;;;;;;5.55;2.70;;;2.70;85.60;;;;;;6281161;22;20027;-85
2022/04/02 19:01:23;;;;;;;3.20;1.20;;;2.60;86.40;;;;;;6281531;22;20094;-86
2022/04/02 19:03:49;;;;;;;2.13;0.90;;;2.50;87.40;;;;;;6281023;22;20491;-88
2022/04/02 19:06:15;;;;;;;2.47;0.77;;;2.40;88.70;;;;;;6281141;22;20445;-88
2022/04/02 19:08:40;;;;;;;2.55;0.68;;;2.30;89.40;;;;;;6281632;22;20345;-90
2022/04/02 19:11:06;;;;;;;3.78;0.70;;;2.20;90.00;;;;;;6254800;22;20090;-89
2022/04/02 19:13:33;;;;;;;4.95;0.90;;;2.20;90.50;;;;;;6281305;22;20061;-89
2022/04/02 19:15:58;;;;;;;3.42;0.95;;;2.10;90.90;;;;;;6255745;22;20022;-89
2022/04/02 19:18:24;;;;;;;6.03;2.63;;;2.10;91.10;;;;;;6255689;22;20023;-88
2022/04/02 19:20:50;;;;;;;2.70;0.70;;;2.00;91.60;;;;;;6281213;22;20444;-88
2022/04/02 19:23:17;;;;;;;4.97;0.80;;;1.90;92.00;;;;;;6255226;22;20090;-88
2022/04/02 19:25:45;;;;;;;4.45;1.50;;;1.90;92.70;;;;;;6255436;22;20093;-87
2022/04/02 19:28:12;;;;;;;6.93;1.40;;;1.80;92.80;;;;;;6281168;22;20023;-87
2022/04/02 19:30:38;;;;;;;3.92;1.20;;;1.90;92.90;;;;;;6280941;22;20022;-88
2022/04/02 19:33:04;;;;;;;4.82;1.40;;;1.80;93.00;;;;;;6280867;22;20019;-89
2022/04/02 19:35:30;;;;;;;4.15;1.10;;;1.80;93.20;;;;;;6255646;22;20116;-90
2022/04/02 19:37:57;;;;;;;4.10;1.00;;;1.80;93.50;;;;;;6281077;22;20026;-87
2022/04/02 19:40:23;;;;;;;2.45;1.00;;;1.80;93.60;;;;;;6280942;22;20467;-87
2022/04/02 19:42:49;;;;;;;4.32;1.23;;;1.80;93.90;;;;;;6280869;22;20090;-89
2022/04/02 19:45:14;;;;;;;4.05;1.05;;;1.80;94.30;;;;;;6255700;22;20574;-88
2022/04/02 19:47:42;;;;;;;7.47;1.77;;;1.80;94.30;;;;;;6255511;22;20025;-89
2022/04/02 19:50:08;;;;;;;3.75;1.30;;;1.80;94.30;;;;;;6254822;22;20389;-88
2022/04/02 19:52:34;;;;;;;4.15;1.40;;;1.80;94.30;;;;;;6253223;22;20019;-88
2022/04/02 19:55:01;;;;;;;4.72;1.40;;;1.80;94.30;;;;;;6255060;22;20023;-87
2022/04/02 19:57:27;;;;;;;9.70;2.97;;;1.80;94.40;;;;;;6280262;22;20012;-87
2022/04/02 19:59:53;;;;;;;5.18;1.50;;;1.80;94.50;;;;;;6280755;22;20509;-86
2022/04/02 20:02:18;;;;;;;6.05;1.80;;;1.80;94.60;;;;;;6280616;22;20375;-88
2022/04/02 20:04:44;;;;;;;4.07;1.37;;;1.80;94.60;;;;;;6280823;22;20051;-86
2022/04/02 20:07:10;;;;;;;3.03;1.30;;;1.80;94.80;;;;;;6280778;22;20042;-85
2022/04/02 20:09:35;;;;;;;5.97;2.40;;;1.80;94.90;;;;;;6254776;22;20459;-86
2022/04/02 20:12:01;;;;;;;4.63;1.67;;;1.80;94.80;;;;;;6255059;22;20008;-86
2022/04/02 20:14:27;;;;;;;5.30;1.20;;;1.70;94.90;;;;;;6280136;22;20072;-87
2022/04/02 20:16:54;;;;;;;3.33;1.03;;;1.70;95.20;;;;;;6254713;22;20019;-87
2022/04/02 20:19:20;;;;;;;4.03;1.58;;;1.70;95.40;;;;;;6280059;22;20071;-86
2022/04/02 20:21:46;;;;;;;4.85;1.10;;;1.70;95.90;;;;;;6280511;22;20069;-87
2022/04/02 20:24:11;;;;;;;3.95;0.90;;;1.60;96.20;;;;;;6280427;22;20460;-86
2022/04/02 20:26:37;;;;;;;2.47;0.95;;;1.60;96.50;;;;;;6280140;22;20364;-86
2022/04/02 20:29:03;;;;;;;2.53;0.95;;;1.50;96.80;;;;;;6280243;22;20058;-86
2022/04/02 20:31:30;;;;;;;3.25;1.15;;;1.50;97.10;;;;;;6280223;22;20007;-85
2022/04/02 20:33:56;;;;;;;13.07;1.65;;;1.50;97.40;;;;;;6280117;22;20019;-86
2022/04/02 20:36:21;;;;;;;3.53;1.10;;;1.40;97.50;;;;;;6280277;22;20458;-86
2022/04/02 20:38:47;;;;;;;2.92;1.15;;;1.40;97.80;;;;;;6280202;22;20112;-86
2022/04/02 20:41:15;;;;;;;4.47;1.48;;;1.40;98.00;;;;;;6280263;22;20054;-86
2022/04/02 20:43:41;;;;;;;6.50;1.65;;;1.40;98.40;;;;;;6280067;22;20050;-85
2022/04/02 20:46:07;;;;;;;4.25;1.40;;;1.30;98.40;;;;;;6280179;22;20027;-86
2022/04/02 20:48:32;;;;;;;2.83;1.40;;;1.30;98.70;;;;;;6254567;22;20068;-86
2022/04/02 20:50:58;;;;;;;3.67;1.30;;;1.30;99.00;;;;;;6279923;22;20025;-87
2022/04/02 20:53:24;;;;;;;3.53;1.20;;;1.30;99.10;;;;;;6280019;22;20168;-86
2022/04/02 20:55:51;;;;;;;8.05;2.42;;;1.20;99.40;;;;;;6279773;22;20026;-86
2022/04/02 20:58:17;;;;;;;5.22;1.65;;;1.20;99.60;;;;;;6279859;22;20460;-86
2022/04/02 21:00:42;;;;;;;6.10;1.65;;;1.30;99.90;;;;;;6279985;22;20034;-86
2022/04/02 21:03:11;;;;;;;3.95;1.67;;;1.30;99.90;;;;;;6254198;22;20042;-87
2022/04/02 21:05:37;;;;;;;6.35;1.90;;;1.30;99.90;;;;;;6280037;22;20089;-87
2022/04/02 21:08:03;;;;;;;7.60;2.05;;;1.30;99.90;;;;;;6280066;22;20104;-88
2022/04/02 21:10:29;;;;;;;6.77;2.30;;;1.30;99.90;;;;;;6254457;22;20026;-85
2022/04/02 21:12:55;;;;;;;6.47;2.50;;;1.30;99.90;;;;;;6307206;22;20238;-85
2022/04/02 21:15:21;;;;;;;8.70;4.17;;;1.30;99.90;;;;;;6279741;22;20026;-86
2022/04/02 21:17:48;;;;;;;6.83;2.50;;;1.30;99.90;;;;;;6280080;22;20015;-86
2022/04/02 21:20:14;;;;;;;6.68;2.85;;;1.20;99.90;;;;;;6307380;22;20026;-86
2022/04/02 21:22:40;;;;;;;5.65;2.20;;;1.30;99.90;;;;;;6279862;22;20019;-86
2022/04/02 21:25:06;;;;;;;6.47;2.63;;;1.30;99.90;;;;;;6279404;22;20326;-86
2022/04/02 21:27:32;;;;;;;5.13;2.30;;;1.30;99.90;;;;;;6280071;22;20015;-87
2022/04/02 21:29:58;;;;;;;6.78;2.25;;;1.20;99.90;;;;;;6279561;22;20046;-86
2022/04/02 21:32:24;;;;;;;5.05;2.08;;;1.20;99.90;;;;;;6279895;22;20011;-86
2022/04/02 21:34:49;;;;;;;5.75;2.35;;;1.20;99.90;;;;;;6307056;22;20449;-87
2022/04/02 21:37:15;;;;;;;4.93;1.88;;;1.20;99.90;;;;;;6278502;22;20062;-88
2022/04/02 21:39:41;;;;;;;3.28;1.67;;;1.10;99.90;;;;;;6277275;22;20015;-91
2022/04/02 21:42:08;;;;;;;7.27;2.03;;;1.10;99.90;;;;;;6277746;22;20015;-89
2022/04/02 21:44:33;;;;;;;4.82;1.80;;;1.10;99.90;;;;;;6278923;22;20246;-89
2022/04/02 21:46:59;;;;;;;4.50;1.73;;;1.00;99.90;;;;;;6254768;22;20095;-88
2022/04/02 21:49:25;;;;;;;4.30;1.60;;;1.00;99.90;;;;;;6280113;22;20026;-87
2022/04/02 21:51:52;;;;;;;3.45;1.70;;;0.90;99.90;;;;;;6254745;22;20022;-86
2022/04/02 21:54:18;;;;;;;3.50;1.65;;;0.90;99.90;;;;;;6252822;22;20023;-86
2022/04/02 21:56:44;;;;;;;3.90;1.53;;;0.90;99.90;;;;;;6279826;22;20016;-86
2022/04/02 21:59:10;;;;;;;6.18;1.90;;;0.80;99.90;;;;;;6252784;22;20145;-87
2022/04/02 22:01:50;;;;;;;5.03;1.85;;;0.80;99.90;;;;;;6253787;22;20442;-87
2022/04/02 22:04:16;;;;;;;5.40;2.20;;;0.80;99.90;;;;;;6254572;22;20140;-86
2022/04/02 22:06:41;;;;;;;5.72;2.60;;;0.80;99.90;;;;;;6254439;22;20069;-87
2022/04/02 22:09:07;;;;;;;4.90;1.80;;;0.80;99.90;;;;;;6254657;22;20116;-88
2022/04/02 22:11:33;;;;;;;6.45;2.35;;;0.80;99.90;;;;;;6254801;22;20022;-87
2022/04/02 22:13:59;;;;;;;5.25;2.20;;;0.80;99.90;;;;;;6279943;22;20094;-87
2022/04/02 22:16:24;;;;;;;6.45;2.05;;;0.80;99.90;;;;;;6280059;22;20484;-87
2022/04/02 22:18:50;;;;;;;6.35;2.45;;;0.70;99.90;;;;;;6254300;22;20148;-88
2022/04/02 22:21:16;;;;;;;5.20;2.15;;;0.70;99.90;;;;;;6254339;22;20018;-89
2022/04/02 22:23:41;;;;;;;5.47;2.55;;;0.70;99.90;;;;;;6280146;22;20027;-87
2022/04/02 22:26:07;;;;;;;6.68;2.22;;;0.70;99.90;;;;;;6253997;22;20014;-87
2022/04/02 22:28:36;;;;;;;5.60;2.08;;;0.70;99.90;;;;;;6280220;22;20444;-88
2022/04/02 22:31:03;;;;;;;6.18;2.10;;;0.70;99.90;;;;;;6254337;22;20091;-88
2022/04/02 22:33:29;;;;;;;5.07;2.25;;;0.70;99.90;;;;;;6254589;22;20027;-88
2022/04/02 22:38:31;;;;;;;4.13;1.92;;;0.60;99.90;;;;;;6276198;22;20019;-89
2022/04/02 22:40:57;;;;;;;4.63;2.22;;;0.60;99.90;;;;;;6275735;22;20337;-90
2022/04/02 22:43:23;;;;;;;4.28;2.10;;;0.60;99.90;;;;;;6276933;22;20337;-87
2022/04/02 22:46:40;;;;;;;7.53;2.90;;;0.60;99.90;;;;;;6276949;22;20023;-90
2022/04/02 22:49:40;;;;;;;6.70;3.22;;;0.60;99.90;;;;;;6251752;22;20020;-86
2022/04/02 22:52:06;;;;;;;5.90;2.85;;;0.60;99.90;;;;;;6250829;22;20429;-86
2022/04/02 22:54:32;;;;;;;6.07;3.00;;;0.50;99.90;;;;;;6302074;22;20047;-86
2022/04/02 22:56:59;;;;;;;8.07;2.85;;;0.50;99.90;;;;;;6250652;22;20015;-86
2022/04/02 22:59:24;;;;;;;5.13;2.45;;;0.50;99.90;;;;;;6250797;22;20114;-85
2022/04/02 23:01:50;;;;;;;6.68;2.72;;;0.50;99.90;;;;;;6277851;22;20054;-87
2022/04/02 23:04:16;;;;;;;5.13;1.80;;;0.40;99.90;;;;;;6276513;22;20111;-86
2022/04/02 23:06:42;;;;;;;3.50;1.65;;;0.50;99.90;;;;;;6250665;22;20016;-87
2022/04/02 23:09:07;;;;;;;3.55;1.95;;;0.40;99.90;;;;;;6276484;22;20016;-85
2022/04/02 23:11:35;;;;;;;5.35;1.90;;;0.40;99.90;;;;;;6278887;22;20027;-86
2022/04/02 23:14:02;;;;;;;7.15;2.00;;;0.30;99.90;;;;;;6251624;22;20090;-88
2022/04/02 23:16:28;;;;;;;;;;;0.30;99.90;;;;;;6277136;22;20023;-87
2022/04/02 23:18:55;;;;;;;4.80;1.73;;;0.30;99.90;;;;;;6227051;22;20280;-88
2022/04/02 23:21:21;;;;;;;4.55;2.10;;;0.40;99.90;;;;;;6297143;22;20470;-90
2022/04/02 23:23:47;;;;;;;5.25;2.50;;;0.30;99.90;;;;;;6256612;22;20046;-91
2022/04/02 23:26:13;;;;;;;6.03;2.38;;;0.40;99.90;;;;;;6256270;22;20027;-88
2022/04/02 23:28:39;;;;;;;7.07;2.55;;;0.40;99.90;;;;;;6256393;22;20015;-89
2022/04/02 23:31:06;;;;;;;7.25;2.75;;;0.40;99.90;;;;;;6256677;22;20015;-90
2022/04/02 23:33:31;;;;;;;;;;;0.40;99.90;;;;;;6257127;22;20513;-91
2022/04/02 23:36:36;;;;;;;4.88;2.63;;;0.50;99.90;;;;;;6256629;22;19952;-89
2022/04/02 23:39:21;;;;;;;5.45;2.40;;;0.50;99.90;;;;;;6256921;22;20011;-86
2022/04/02 23:41:47;;;;;;;5.47;2.42;;;0.60;99.90;;;;;;6255615;22;20026;-87
2022/04/02 23:44:13;;;;;;;8.05;2.08;;;0.60;99.90;;;;;;6255199;22;20011;-87
2022/04/02 23:46:38;;;;;;;4.57;2.35;;;0.60;99.90;;;;;;6255521;22;20022;-87
2022/04/02 23:49:04;;;;;;;5.95;2.25;;;0.60;99.90;;;;;;6255320;22;20074;-87
2022/04/02 23:51:31;;;;;;;5.93;2.10;;;0.60;99.90;;;;;;6255632;22;20345;-87
2022/04/02 23:56:40;;;;;;;7.90;2.15;;;0.70;99.90;;;;;;6247314;22;19993;-91
2022/04/02 23:59:06;;;;;;;4.60;2.33;;;0.70;99.90;;;;;;6210470;23;20027;-90
